Time;durP1;ratioP1;P1;durP2;ratioP2;P2;SDS_P1;SDS_P2;PMS_P1;PMS_P2;Temp;Humidity;BMP_temperature;BMP_pressure;BME280_temperature;BME280_humidity;BME280_pressure;Samples;Min_cycle;Max_cycle;Signal;HPM_P1;HPM_P2
2022/10/04 00:02:11;;;;;;;7.03;1.20;;;;;;;;;;5115251;28;20480;-76
2022/10/04 00:04:40;;;;;;;4.03;0.90;;;;;;;;;;5115316;28;20027;-76
2022/10/04 00:07:07;;;;;;;6.38;1.10;;;;;;;;;;5115134;28;20183;-77
2022/10/04 00:09:48;;;;;;;3.20;0.93;;;;;;;;;;5115200;28;20072;-77
2022/10/04 00:12:20;;;;;;;3.70;0.98;;;;;;;;;;5116189;28;20039;-77
2022/10/04 00:14:46;;;;;;;3.15;0.93;;;;;;;;;;5115084;28;20495;-77
2022/10/04 00:17:13;;;;;;;5.15;1.00;;;;;;;;;;5116317;28;20020;-77
2022/10/04 00:19:46;;;;;;;3.20;1.00;;;;;;;;;;5114896;28;20088;-77
2022/10/04 00:22:17;;;;;;;4.20;1.13;;;;;;;;;;5114929;28;20054;-77
2022/10/04 00:25:03;;;;;;;3.95;1.00;;;;;;;;;;5114900;28;20032;-77
2022/10/04 00:27:29;;;;;;;2.28;0.82;;;;;;;;;;5105341;28;20044;-78
2022/10/04 00:30:01;;;;;;;3.92;1.00;;;;;;;;;;5114637;28;20023;-77
2022/10/04 00:32:31;;;;;;;2.65;0.82;;;;;;;;;;5114608;28;20036;-81
2022/10/04 00:34:59;;;;;;;4.68;1.00;;;;;;;;;;5116363;28;20023;-86
2022/10/04 00:37:26;;;;;;;6.30;1.25;;;;;;;;;;5115174;28;20024;-79
2022/10/04 00:40:04;;;;;;;2.08;0.80;;;;;;;;;;5115033;28;20030;-80
2022/10/04 00:42:42;;;;;;;4.05;1.25;;;;;;;;;;5114686;28;20028;-79
2022/10/04 00:45:14;;;;;;;3.38;0.95;;;;;;;;;;5115359;28;20027;-85
2022/10/04 00:47:43;;;;;;;2.55;0.70;;;;;;;;;;5115739;28;20106;-86
2022/10/04 00:50:17;;;;;;;2.63;0.80;;;;;;;;;;5116366;28;20107;-85
2022/10/04 00:52:43;;;;;;;;;;;;;;;;;;5115666;28;20045;-85
2022/10/04 00:55:09;;;;;;;3.30;0.63;;;;;;;;;;5116823;28;20343;-85
2022/10/04 00:57:39;;;;;;;3.45;1.02;;;;;;;;;;5115366;28;20050;-86
2022/10/04 01:00:10;;;;;;;4.05;0.80;;;;;;;;;;5117035;28;20150;-81
2022/10/04 01:02:40;;;;;;;3.63;1.05;;;;;;;;;;5115212;28;20093;-79
2022/10/04 01:05:25;;;;;;;1.75;0.68;;;;;;;;;;5114499;28;20085;-85
2022/10/04 01:07:54;;;;;;;5.05;1.13;;;;;;;;;;5115419;28;20023;-84
2022/10/04 01:10:24;;;;;;;2.95;0.70;;;;;;;;;;5114794;28;20023;-86
2022/10/04 01:12:54;;;;;;;1.27;0.60;;;;;;;;;;5116475;28;20040;-80
2022/10/04 01:15:46;;;;;;;7.75;1.05;;;;;;;;;;5116806;28;20472;-77
2022/10/04 01:18:14;;;;;;;2.92;0.90;;;;;;;;;;5110147;28;20035;-85
2022/10/04 01:20:49;;;;;;;2.58;1.00;;;;;;;;;;5114156;28;20027;-79
2022/10/04 01:23:40;;;;;;;4.82;1.20;;;;;;;;;;5114438;28;20066;-80
2022/10/04 01:26:30;;;;;;;3.95;1.02;;;;;;;;;;5077761;28;20051;-86
2022/10/04 01:28:58;;;;;;;7.20;1.17;;;;;;;;;;5115289;28;20111;-79
2022/10/04 01:31:25;;;;;;;2.70;1.00;;;;;;;;;;5114832;28;20081;-85
2022/10/04 01:33:52;;;;;;;2.28;1.17;;;;;;;;;;5114944;28;20028;-79
2022/10/04 01:36:19;;;;;;;2.47;0.82;;;;;;;;;;5113907;28;20495;-80
2022/10/04 01:38:45;;;;;;;5.40;0.77;;;;;;;;;;5113743;28;20023;-79
2022/10/04 01:41:14;;;;;;;1.75;0.70;;;;;;;;;;5114603;28;20032;-80
2022/10/04 01:43:42;;;;;;;3.20;0.80;;;;;;;;;;5114109;28;20031;-80
2022/10/04 01:46:18;;;;;;;5.43;1.30;;;;;;;;;;5114509;28;20052;-80
2022/10/04 01:48:45;;;;;;;2.90;1.10;;;;;;;;;;5114359;28;20415;-78
2022/10/04 01:51:18;;;;;;;3.92;1.48;;;;;;;;;;5113316;28;20037;-79
2022/10/04 01:53:59;;;;;;;3.70;1.15;;;;;;;;;;5113389;28;20065;-84
2022/10/04 01:56:28;;;;;;;2.88;1.20;;;;;;;;;;5114788;28;20379;-84
2022/10/04 01:58:58;;;;;;;5.70;1.20;;;;;;;;;;5115360;28;20076;-79
2022/10/04 02:01:34;;;;;;;4.45;1.10;;;;;;;;;;5114059;28;20035;-84
2022/10/04 02:04:03;;;;;;;4.60;1.30;;;;;;;;;;5114338;28;20015;-85
2022/10/04 02:06:35;;;;;;;2.72;1.00;;;;;;;;;;5115043;28;20040;-78
2022/10/04 02:09:06;;;;;;;1.80;0.85;;;;;;;;;;5115008;28;20031;-85
2022/10/04 02:11:33;;;;;;;2.88;0.82;;;;;;;;;;5113930;28;20115;-85
2022/10/04 02:14:00;;;;;;;3.63;1.05;;;;;;;;;;5113837;28;20433;-87
2022/10/04 02:16:26;;;;;;;4.18;1.13;;;;;;;;;;5113902;28;20475;-80
2022/10/04 02:18:53;;;;;;;2.72;1.10;;;;;;;;;;5113991;28;20028;-80
2022/10/04 02:21:21;;;;;;;4.85;1.40;;;;;;;;;;5114154;28;20478;-79
2022/10/04 02:23:47;;;;;;;2.05;0.80;;;;;;;;;;5113207;28;20387;-80
2022/10/04 02:26:13;;;;;;;3.75;1.27;;;;;;;;;;5113001;28;20039;-80
2022/10/04 02:28:40;;;;;;;2.00;0.90;;;;;;;;;;5114065;28;20411;-82
2022/10/04 02:33:52;;;;;;;2.92;0.82;;;;;;;;;;5114507;28;20042;-80
2022/10/04 02:36:20;;;;;;;3.35;1.33;;;;;;;;;;5113092;28;20046;-78
2022/10/04 02:38:53;;;;;;;2.55;0.90;;;;;;;;;;5114147;28;20035;-85
2022/10/04 02:41:19;;;;;;;;;;;;;;;;;;5094167;28;20055;-86
2022/10/04 02:43:45;;;;;;;5.05;0.90;;;;;;;;;;5095475;28;20459;-86
2022/10/04 02:46:15;;;;;;;3.85;1.17;;;;;;;;;;5093491;28;20051;-79
2022/10/04 02:48:55;;;;;;;4.43;1.35;;;;;;;;;;5093635;28;20035;-85
2022/10/04 02:51:41;;;;;;;3.40;1.00;;;;;;;;;;5093656;28;20035;-86
2022/10/04 02:54:17;;;;;;;4.05;1.00;;;;;;;;;;5092569;28;20036;-84
2022/10/04 02:56:44;;;;;;;2.78;0.90;;;;;;;;;;5094135;28;20492;-85
2022/10/04 02:59:15;;;;;;;2.17;1.00;;;;;;;;;;5093817;28;20069;-85
2022/10/04 03:01:46;;;;;;;1.90;0.80;;;;;;;;;;5097112;28;20035;-85
2022/10/04 03:04:13;;;;;;;6.20;1.10;;;;;;;;;;5096387;28;20021;-82
2022/10/04 03:06:41;;;;;;;4.78;1.10;;;;;;;;;;5095806;28;20066;-85
2022/10/04 03:09:07;;;;;;;4.57;1.00;;;;;;;;;;5096809;28;20032;-84
2022/10/04 03:11:35;;;;;;;3.58;1.00;;;;;;;;;;5096653;28;20036;-84
2022/10/04 03:14:02;;;;;;;4.47;1.08;;;;;;;;;;5097089;28;20024;-79
2022/10/04 03:16:33;;;;;;;4.70;1.10;;;;;;;;;;5096671;28;20032;-79
2022/10/04 03:19:00;;;;;;;2.58;1.10;;;;;;;;;;5097706;28;20028;-79
2022/10/04 03:21:26;;;;;;;3.63;1.05;;;;;;;;;;5097622;28;20468;-78
2022/10/04 03:23:53;;;;;;;6.07;1.25;;;;;;;;;;5096623;28;20020;-78
2022/10/04 03:26:27;;;;;;;2.80;0.90;;;;;;;;;;5096610;28;20043;-78
2022/10/04 03:28:53;;;;;;;2.28;1.00;;;;;;;;;;5097129;28;20024;-79
2022/10/04 03:31:19;;;;;;;3.10;1.00;;;;;;;;;;5096305;28;20031;-78
2022/10/04 03:33:46;;;;;;;7.28;1.13;;;;;;;;;;5097417;28;20497;-84
2022/10/04 03:36:15;;;;;;;4.35;1.10;;;;;;;;;;5096383;28;20050;-85
2022/10/04 03:38:42;;;;;;;3.13;0.68;;;;;;;;;;5095922;28;20020;-85
2022/10/04 03:41:10;;;;;;;2.33;1.10;;;;;;;;;;5095644;28;20208;-84
2022/10/04 03:43:37;;;;;;;6.40;1.17;;;;;;;;;;5096609;28;20028;-84
2022/10/04 03:46:04;;;;;;;6.43;1.35;;;;;;;;;;5095567;28;20063;-85
2022/10/04 03:48:30;;;;;;;5.35;1.00;;;;;;;;;;5095839;28;20055;-84
2022/10/04 03:50:57;;;;;;;3.05;1.10;;;;;;;;;;5097050;28;20039;-85
2022/10/04 03:53:26;;;;;;;3.33;1.20;;;;;;;;;;5096610;28;20024;-86
2022/10/04 03:55:52;;;;;;;1.83;0.85;;;;;;;;;;5096144;28;20031;-85
2022/10/04 03:58:19;;;;;;;2.97;1.38;;;;;;;;;;5095540;28;20393;-78
2022/10/04 04:01:08;;;;;;;2.28;1.10;;;;;;;;;;5096748;28;20024;-79
2022/10/04 04:03:41;;;;;;;3.28;1.20;;;;;;;;;;5085832;28;20032;-85
2022/10/04 04:06:12;;;;;;;3.60;1.20;;;;;;;;;;5097181;28;20024;-85
2022/10/04 04:08:40;;;;;;;2.25;0.90;;;;;;;;;;5096838;28;20035;-86
2022/10/04 04:11:07;;;;;;;2.60;1.23;;;;;;;;;;5096780;28;20389;-83
2022/10/04 04:13:39;;;;;;;3.97;1.13;;;;;;;;;;5095731;28;20024;-79
2022/10/04 04:16:06;;;;;;;2.72;1.00;;;;;;;;;;5095797;28;20024;-85
2022/10/04 04:18:34;;;;;;;5.55;1.30;;;;;;;;;;5096072;28;20089;-86
2022/10/04 04:21:01;;;;;;;4.53;1.35;;;;;;;;;;5095772;28;20054;-78
2022/10/04 04:23:33;;;;;;;2.55;1.10;;;;;;;;;;5095229;28;20062;-77
2022/10/04 04:26:20;;;;;;;5.03;1.73;;;;;;;;;;5095623;28;20034;-84
2022/10/04 04:28:50;;;;;;;3.55;1.05;;;;;;;;;;5094556;28;20066;-75
2022/10/04 04:31:26;;;;;;;3.55;1.40;;;;;;;;;;5095690;28;20035;-78
2022/10/04 04:33:58;;;;;;;5.57;1.08;;;;;;;;;;5094472;28;20032;-77
2022/10/04 04:36:25;;;;;;;3.33;1.30;;;;;;;;;;5095196;28;20030;-83
2022/10/04 04:41:36;;;;;;;3.47;1.20;;;;;;;;;;5096102;28;20035;-85
2022/10/04 04:44:03;;;;;;;3.40;1.27;;;;;;;;;;5094457;28;20024;-79
2022/10/04 04:46:30;;;;;;;5.90;1.48;;;;;;;;;;5095347;28;20505;-79
2022/10/04 04:49:02;;;;;;;3.47;1.38;;;;;;;;;;5095636;28;20078;-81
2022/10/04 04:51:30;;;;;;;4.50;1.35;;;;;;;;;;5094269;28;20059;-79
2022/10/04 04:53:56;;;;;;;4.72;1.67;;;;;;;;;;5094257;28;20473;-78
2022/10/04 04:56:25;;;;;;;8.30;2.10;;;;;;;;;;5095909;28;20031;-77
2022/10/04 04:58:52;;;;;;;2.63;1.20;;;;;;;;;;5094497;28;20055;-77
2022/10/04 05:01:34;;;;;;;3.30;1.30;;;;;;;;;;5106600;28;20032;-78
2022/10/04 05:04:03;;;;;;;4.63;1.27;;;;;;;;;;5115170;28;20536;-78
2022/10/04 05:06:36;;;;;;;4.88;1.33;;;;;;;;;;5116594;28;20036;-77
2022/10/04 05:09:02;;;;;;;;;;;;;;;;;;5114757;28;20070;-78
2022/10/04 05:11:36;;;;;;;3.83;1.20;;;;;;;;;;5117498;28;19904;-80
2022/10/04 05:14:05;;;;;;;5.35;1.13;;;;;;;;;;5114068;28;20370;-79
2022/10/04 05:16:35;;;;;;;2.83;1.45;;;;;;;;;;5116139;28;20028;-87
2022/10/04 05:19:08;;;;;;;2.80;1.40;;;;;;;;;;5114293;28;20024;-81
2022/10/04 05:21:35;;;;;;;4.65;1.40;;;;;;;;;;5115123;28;20422;-80
2022/10/04 05:24:12;;;;;;;3.20;1.20;;;;;;;;;;5113806;28;20024;-80
2022/10/04 05:26:41;;;;;;;4.35;1.27;;;;;;;;;;5113581;28;20070;-81
2022/10/04 05:29:19;;;;;;;6.78;1.40;;;;;;;;;;5113492;28;20024;-80
2022/10/04 05:31:45;;;;;;;7.22;1.45;;;;;;;;;;5113773;28;20118;-79
2022/10/04 05:34:28;;;;;;;3.42;1.40;;;;;;;;;;5115250;28;20130;-80
2022/10/04 05:36:59;;;;;;;3.40;1.20;;;;;;;;;;5114798;28;20027;-80
2022/10/04 05:39:28;;;;;;;5.80;1.80;;;;;;;;;;5119191;28;20028;-80
2022/10/04 05:42:25;;;;;;;4.20;1.70;;;;;;;;;;5117696;28;20019;-80
2022/10/04 05:44:52;;;;;;;6.53;1.73;;;;;;;;;;5097508;28;20086;-82
2022/10/04 05:47:22;;;;;;;3.63;1.45;;;;;;;;;;5114360;28;20044;-81
2022/10/04 05:49:50;;;;;;;9.40;1.88;;;;;;;;;;5114451;28;20028;-81
2022/10/04 05:52:24;;;;;;;2.88;1.50;;;;;;;;;;5113616;28;20118;-81
2022/10/04 05:55:10;;;;;;;5.45;1.58;;;;;;;;;;5114244;28;20023;-81
2022/10/04 05:57:45;;;;;;;4.80;1.50;;;;;;;;;;5114444;28;20098;-80
2022/10/04 06:00:19;;;;;;;3.25;1.40;;;;;;;;;;5114553;28;20098;-82
2022/10/04 06:02:49;;;;;;;5.32;1.70;;;;;;;;;;5113095;28;20024;-82
2022/10/04 06:05:16;;;;;;;4.13;1.70;;;;;;;;;;5111728;28;20032;-79
2022/10/04 06:07:48;;;;;;;4.05;1.65;;;;;;;;;;5114334;28;20028;-76
2022/10/04 06:10:17;;;;;;;5.38;1.80;;;;;;;;;;5093673;28;20039;-78
2022/10/04 06:13:02;;;;;;;4.75;2.08;;;;;;;;;;5098813;28;20069;-86
2022/10/04 06:15:30;;;;;;;7.30;1.75;;;;;;;;;;5113798;28;20449;-84
2022/10/04 06:18:22;;;;;;;4.28;1.65;;;;;;;;;;5113334;28;20031;-80
2022/10/04 06:21:07;;;;;;;3.33;1.63;;;;;;;;;;5112984;28;20081;-82
2022/10/04 06:23:35;;;;;;;5.05;1.55;;;;;;;;;;5112945;28;20027;-81
2022/10/04 06:26:09;;;;;;;4.15;1.77;;;;;;;;;;5112389;28;20556;-82
2022/10/04 06:28:35;;;;;;;5.97;1.73;;;;;;;;;;5114224;28;20019;-81
2022/10/04 06:31:11;;;;;;;3.67;1.65;;;;;;;;;;5113631;28;20492;-83
2022/10/04 06:33:40;;;;;;;5.15;1.50;;;;;;;;;;5106251;28;20022;-80
2022/10/04 06:36:09;;;;;;;2.15;1.20;;;;;;;;;;5115612;28;20034;-82
2022/10/04 06:38:47;;;;;;;3.03;1.70;;;;;;;;;;5115097;28;20016;-82
2022/10/04 06:41:27;;;;;;;4.38;1.60;;;;;;;;;;5112212;28;20067;-82
2022/10/04 06:44:03;;;;;;;2.67;1.17;;;;;;;;;;5112839;28;20048;-83
2022/10/04 06:46:29;;;;;;;5.78;1.15;;;;;;;;;;5113294;28;20045;-80
2022/10/04 06:48:58;;;;;;;4.88;1.40;;;;;;;;;;5113437;28;20106;-76
2022/10/04 06:51:37;;;;;;;4.53;1.77;;;;;;;;;;5113584;28;20020;-78
2022/10/04 06:54:06;;;;;;;6.60;1.77;;;;;;;;;;5113661;28;20046;-78
2022/10/04 06:56:39;;;;;;;6.05;1.63;;;;;;;;;;5112258;28;20032;-78
2022/10/04 06:59:35;;;;;;;4.05;1.60;;;;;;;;;;5113758;28;20027;-78
2022/10/04 07:02:06;;;;;;;4.43;1.85;;;;;;;;;;5041152;28;20091;-81
2022/10/04 07:04:39;;;;;;;3.05;1.63;;;;;;;;;;5113461;28;20057;-77
2022/10/04 07:07:34;;;;;;;5.28;2.03;;;;;;;;;;5104891;28;20081;-79
2022/10/04 07:10:06;;;;;;;4.13;1.73;;;;;;;;;;5113473;28;20020;-77
2022/10/04 07:12:33;;;;;;;6.65;2.08;;;;;;;;;;5113623;28;20030;-80
2022/10/04 07:15:01;;;;;;;5.95;1.98;;;;;;;;;;5111743;28;20361;-80
2022/10/04 07:17:30;;;;;;;11.57;2.20;;;;;;;;;;5112248;28;20032;-82
2022/10/04 07:19:58;;;;;;;3.25;1.55;;;;;;;;;;5113504;28;20027;-77
2022/10/04 07:22:24;;;;;;;11.20;2.10;;;;;;;;;;5112087;28;20028;-79
2022/10/04 07:24:53;;;;;;;8.45;2.20;;;;;;;;;;5114910;28;20172;-95
2022/10/04 07:27:35;;;;;;;4.57;1.67;;;;;;;;;;5115625;28;20039;-96
2022/10/04 07:30:20;;;;;;;5.03;1.80;;;;;;;;;;5120865;28;20028;-89
2022/10/04 07:33:00;;;;;;;4.40;1.45;;;;;;;;;;5116914;28;20039;-96
2022/10/04 07:35:31;;;;;;;5.55;1.52;;;;;;;;;;5116787;28;20111;-77
2022/10/04 07:38:12;;;;;;;3.38;1.70;;;;;;;;;;5123198;28;20079;-95
2022/10/04 07:40:57;;;;;;;4.40;1.88;;;;;;;;;;5117909;28;20049;-89
2022/10/04 07:43:57;;;;;;;4.93;1.70;;;;;;;;;;5115855;28;20032;-88
2022/10/04 07:46:39;;;;;;;6.38;1.45;;;;;;;;;;5033030;28;20049;-94
2022/10/04 07:49:12;;;;;;;4.90;1.75;;;;;;;;;;5016395;28;20026;-91
2022/10/04 07:51:44;;;;;;;5.78;1.52;;;;;;;;;;5018028;28;20045;-92
2022/10/04 07:54:45;;;;;;;2.72;1.30;;;;;;;;;;5023529;28;20021;-91
2022/10/04 07:57:29;;;;;;;7.47;1.83;;;;;;;;;;5111827;28;20054;-92
2022/10/04 08:00:05;;;;;;;6.38;1.25;;;;;;;;;;5118047;28;20435;-79
2022/10/04 08:02:44;;;;;;;9.20;1.73;;;;;;;;;;5117202;28;20126;-89
2022/10/04 08:05:17;;;;;;;6.18;1.42;;;;;;;;;;5117522;28;20488;-90
2022/10/04 08:08:01;;;;;;;3.78;1.48;;;;;;;;;;5118269;28;20118;-87
2022/10/04 08:10:37;;;;;;;3.80;1.40;;;;;;;;;;5117434;28;20019;-85
2022/10/04 08:13:14;;;;;;;3.10;1.08;;;;;;;;;;5116609;28;20028;-88
2022/10/04 08:15:49;;;;;;;2.33;0.80;;;;;;;;;;5117886;28;20089;-88
2022/10/04 08:18:21;;;;;;;3.78;0.90;;;;;;;;;;5118590;27;20031;-78
2022/10/04 08:21:02;;;;;;;5.47;1.13;;;;;;;;;;5114797;28;20031;-90
2022/10/04 08:23:47;;;;;;;2.17;0.52;;;;;;;;;;5134660;22;20024;-85
2022/10/04 08:26:32;;;;;;;2.05;0.52;;;;;;;;;;5019845;28;20136;-91
2022/10/04 08:32:22;;;;;;;3.58;0.60;;;;;;;;;;5039337;28;20052;-78
2022/10/04 08:35:04;;;;;;;1.50;0.60;;;;;;;;;;5019636;28;20034;-81
2022/10/04 08:37:54;;;;;;;1.97;0.50;;;;;;;;;;5019654;28;20116;-79
2022/10/04 08:41:12;;;;;;;1.67;0.60;;;;;;;;;;5020124;28;20399;-92
2022/10/04 08:46:15;;;;;;;6.88;0.68;;;;;;;;;;5796722;22;20055;-90
2022/10/04 08:49:01;;;;;;;3.00;0.63;;;;;;;;;;5044791;28;20370;-88
2022/10/04 08:51:30;;;;;;;6.75;0.60;;;;;;;;;;5038486;28;20044;-87
2022/10/04 08:54:28;;;;;;;6.60;0.90;;;;;;;;;;5039092;28;20389;-91
2022/10/04 08:56:59;;;;;;;4.30;1.00;;;;;;;;;;5037927;28;20551;-79
2022/10/04 08:59:47;;;;;;;3.00;0.60;;;;;;;;;;5037526;28;20112;-87
2022/10/04 09:02:32;;;;;;;1.58;0.50;;;;;;;;;;5038277;28;20017;-87
2022/10/04 09:05:22;;;;;;;2.25;0.57;;;;;;;;;;5056658;28;20021;-90
2022/10/04 09:07:58;;;;;;;3.40;0.70;;;;;;;;;;5040086;28;20040;-91
2022/10/04 09:10:43;;;;;;;3.50;1.00;;;;;;;;;;5040238;28;20079;-92
2022/10/04 09:13:15;;;;;;;3.33;1.20;;;;;;;;;;5040862;28;20033;-91
2022/10/04 09:16:04;;;;;;;8.77;1.02;;;;;;;;;;5058900;28;20096;-86
2022/10/04 09:18:50;;;;;;;4.05;1.00;;;;;;;;;;5039118;28;20017;-88
2022/10/04 09:21:26;;;;;;;2.45;1.10;;;;;;;;;;5048019;28;20055;-88
2022/10/04 09:24:02;;;;;;;3.03;1.00;;;;;;;;;;5040126;28;20021;-83
2022/10/04 09:26:43;;;;;;;2.72;1.17;;;;;;;;;;5036528;28;20079;-83
2022/10/04 09:29:12;;;;;;;4.22;1.15;;;;;;;;;;5036576;28;20136;-76
2022/10/04 09:31:44;;;;;;;2.17;1.00;;;;;;;;;;5036419;28;20119;-76
2022/10/04 09:34:22;;;;;;;2.92;1.08;;;;;;;;;;5036410;28;20056;-76
2022/10/04 09:37:07;;;;;;;2.72;1.13;;;;;;;;;;5054010;28;20555;-74
2022/10/04 09:39:42;;;;;;;5.82;1.40;;;;;;;;;;5035748;28;20067;-76
2022/10/04 09:42:08;;;;;;;7.53;1.45;;;;;;;;;;5054122;28;20036;-82
2022/10/04 09:44:34;;;;;;;3.78;1.20;;;;;;;;;;5054255;28;20017;-79
2022/10/04 09:47:07;;;;;;;3.22;1.20;;;;;;;;;;5054139;28;20382;-79
2022/10/04 09:50:03;;;;;;;3.03;1.00;;;;;;;;;;5036008;28;20112;-80
2022/10/04 09:52:36;;;;;;;4.40;1.27;;;;;;;;;;4950410;28;20035;-81
2022/10/04 09:55:05;;;;;;;2.47;1.00;;;;;;;;;;5036035;28;20366;-84
2022/10/04 09:57:45;;;;;;;5.15;1.45;;;;;;;;;;5054856;28;20063;-76
2022/10/04 10:00:11;;;;;;;3.83;1.30;;;;;;;;;;5045162;28;20056;-83
2022/10/04 10:02:53;;;;;;;3.70;1.17;;;;;;;;;;5017564;28;20392;-84
2022/10/04 10:05:25;;;;;;;5.15;1.30;;;;;;;;;;5018043;28;20512;-89
2022/10/04 10:07:58;;;;;;;3.20;1.20;;;;;;;;;;5019282;28;20052;-81
2022/10/04 10:13:39;;;;;;;3.45;1.05;;;;;;;;;;5035783;28;20084;-87
2022/10/04 10:16:11;;;;;;;2.35;1.08;;;;;;;;;;5017630;28;20116;-90
2022/10/04 10:18:57;;;;;;;6.53;1.30;;;;;;;;;;5018898;28;20057;-90
2022/10/04 10:21:35;;;;;;;2.30;0.98;;;;;;;;;;5016972;28;20482;-87
2022/10/04 10:24:20;;;;;;;3.60;1.20;;;;;;;;;;5033722;28;20462;-86
2022/10/04 10:27:06;;;;;;;3.47;1.10;;;;;;;;;;5016197;28;20055;-87
2022/10/04 10:29:51;;;;;;;2.45;1.00;;;;;;;;;;5016300;28;20459;-82
2022/10/04 10:32:32;;;;;;;2.53;0.90;;;;;;;;;;5017758;28;20497;-89
2022/10/04 10:35:17;;;;;;;2.35;0.90;;;;;;;;;;5015750;28;20076;-80
2022/10/04 10:38:03;;;;;;;2.35;1.05;;;;;;;;;;5015266;28;20029;-82
2022/10/04 10:40:48;;;;;;;2.90;1.08;;;;;;;;;;5015602;28;20025;-80
2022/10/04 10:43:19;;;;;;;4.55;1.05;;;;;;;;;;5015439;28;20028;-78
2022/10/04 10:46:09;;;;;;;5.55;1.52;;;;;;;;;;5014801;28;20568;-79
2022/10/04 10:48:39;;;;;;;3.78;1.35;;;;;;;;;;5014618;28;20033;-78
2022/10/04 10:51:23;;;;;;;2.95;1.42;;;;;;;;;;5032841;28;20467;-76
2022/10/04 10:54:08;;;;;;;4.60;1.60;;;;;;;;;;5015385;28;20033;-79
2022/10/04 10:56:34;;;;;;;3.15;1.20;;;;;;;;;;5015345;28;20026;-80
2022/10/04 10:59:00;;;;;;;6.47;1.67;;;;;;;;;;5015101;28;20036;-79
2022/10/04 11:01:52;;;;;;;5.68;1.35;;;;;;;;;;5015294;28;20112;-79
2022/10/04 11:04:37;;;;;;;3.90;1.42;;;;;;;;;;5015270;28;20025;-80
2022/10/04 11:07:20;;;;;;;3.90;1.60;;;;;;;;;;5015116;28;20068;-79
2022/10/04 11:09:59;;;;;;;3.22;1.58;;;;;;;;;;5032868;28;20025;-79
2022/10/04 11:12:31;;;;;;;10.63;1.98;;;;;;;;;;5032690;28;20024;-79
2022/10/04 11:15:19;;;;;;;4.28;1.50;;;;;;;;;;5015141;28;20033;-79
2022/10/04 11:18:03;;;;;;;5.28;1.77;;;;;;;;;;5015161;28;20053;-79
2022/10/04 11:20:43;;;;;;;6.88;1.65;;;;;;;;;;5032715;28;20033;-80
2022/10/04 11:23:19;;;;;;;3.17;1.50;;;;;;;;;;5032854;28;20032;-79
2022/10/04 11:25:49;;;;;;;7.03;1.80;;;;;;;;;;5032919;28;20080;-80
2022/10/04 11:28:45;;;;;;;6.25;1.58;;;;;;;;;;5033722;28;20052;-79
2022/10/04 11:31:11;;;;;;;5.13;1.60;;;;;;;;;;5035360;28;20120;-79
2022/10/04 11:33:51;;;;;;;5.30;1.80;;;;;;;;;;5018822;28;20079;-78
2022/10/04 11:36:20;;;;;;;4.65;1.60;;;;;;;;;;5018822;28;20052;-76
2022/10/04 11:38:51;;;;;;;3.53;1.65;;;;;;;;;;5018413;28;20030;-77
2022/10/04 11:41:39;;;;;;;4.18;1.40;;;;;;;;;;5036597;28;20032;-76
2022/10/04 11:44:17;;;;;;;6.10;1.27;;;;;;;;;;5018642;28;20017;-79
2022/10/04 11:46:50;;;;;;;4.28;1.45;;;;;;;;;;5014716;28;20060;-77
2022/10/04 11:49:19;;;;;;;3.23;1.30;;;;;;;;;;5015239;28;20537;-79
2022/10/04 11:51:48;;;;;;;3.70;1.20;;;;;;;;;;5015154;28;20770;-79
2022/10/04 11:54:14;;;;;;;4.68;1.20;;;;;;;;;;5015137;28;20030;-78
2022/10/04 11:56:40;;;;;;;4.68;1.55;;;;;;;;;;5016289;28;20025;-79
2022/10/04 11:59:09;;;;;;;4.05;1.40;;;;;;;;;;5014845;28;20034;-78
2022/10/04 12:02:01;;;;;;;3.25;1.30;;;;;;;;;;5015088;28;20018;-79
2022/10/04 12:05:03;;;;;;;4.32;1.48;;;;;;;;;;5031348;28;20486;-79
2022/10/04 12:07:32;;;;;;;7.38;2.00;;;;;;;;;;4974873;28;20039;-81
2022/10/04 12:10:28;;;;;;;5.53;1.30;;;;;;;;;;5004426;28;20630;-80
2022/10/04 12:13:09;;;;;;;4.10;1.30;;;;;;;;;;5018918;28;20038;-78
2022/10/04 12:15:51;;;;;;;5.63;1.45;;;;;;;;;;5014845;28;20049;-77
2022/10/04 12:18:35;;;;;;;3.40;1.48;;;;;;;;;;5014831;28;20022;-81
2022/10/04 12:21:20;;;;;;;3.67;1.45;;;;;;;;;;5014555;28;20701;-79
2022/10/04 12:24:11;;;;;;;4.28;1.77;;;;;;;;;;5023311;28;20026;-81
2022/10/04 12:26:38;;;;;;;3.25;1.30;;;;;;;;;;5018355;28;20057;-83
2022/10/04 12:29:10;;;;;;;4.88;1.30;;;;;;;;;;5014391;28;20483;-79
2022/10/04 12:31:36;;;;;;;2.83;1.35;;;;;;;;;;5014189;28;20103;-79
2022/10/04 12:34:13;;;;;;;5.05;1.30;;;;;;;;;;5014352;28;20026;-83
2022/10/04 12:36:58;;;;;;;3.80;1.25;;;;;;;;;;5014261;28;20456;-80
2022/10/04 12:39:24;;;;;;;4.18;1.15;;;;;;;;;;5013963;28;20037;-82
2022/10/04 12:41:50;;;;;;;4.75;1.30;;;;;;;;;;5014235;28;20029;-80
2022/10/04 12:44:26;;;;;;;3.67;1.20;;;;;;;;;;5024358;28;20026;-83
2022/10/04 12:47:11;;;;;;;6.32;1.20;;;;;;;;;;5024298;28;20136;-81
2022/10/04 12:49:45;;;;;;;3.10;1.20;;;;;;;;;;5016712;28;20033;-81
2022/10/04 12:52:22;;;;;;;4.05;1.20;;;;;;;;;;5029765;28;20030;-82
2022/10/04 12:54:51;;;;;;;3.92;1.10;;;;;;;;;;5026309;28;20084;-80
2022/10/04 12:57:27;;;;;;;3.58;1.10;;;;;;;;;;5027927;28;20084;-79
2022/10/04 13:00:27;;;;;;;3.50;1.05;;;;;;;;;;5027714;28;20557;-80
2022/10/04 13:03:10;;;;;;;1.92;1.10;;;;;;;;;;4991661;28;20041;-82
2022/10/04 13:05:40;;;;;;;2.92;1.13;;;;;;;;;;5033583;28;20477;-82
2022/10/04 13:08:42;;;;;;;6.57;1.33;;;;;;;;;;5033420;28;20051;-81
2022/10/04 13:11:26;;;;;;;2.30;1.05;;;;;;;;;;4957630;28;20027;-80
2022/10/04 13:14:12;;;;;;;3.38;1.55;;;;;;;;;;5027594;28;20034;-81
2022/10/04 13:16:49;;;;;;;3.00;1.30;;;;;;;;;;5033272;28;20079;-81
2022/10/04 13:19:28;;;;;;;3.50;1.25;;;;;;;;;;5033426;28;20105;-82
2022/10/04 13:21:54;;;;;;;2.67;1.20;;;;;;;;;;5033230;28;20029;-79
2022/10/04 13:24:53;;;;;;;2.63;1.08;;;;;;;;;;5033061;28;20568;-81
2022/10/04 13:27:21;;;;;;;2.25;1.10;;;;;;;;;;5034214;28;20553;-79
2022/10/04 13:30:06;;;;;;;5.65;1.40;;;;;;;;;;5027608;28;20417;-79
2022/10/04 13:32:50;;;;;;;3.75;1.50;;;;;;;;;;5018868;28;20033;-82
2022/10/04 13:35:30;;;;;;;2.97;1.40;;;;;;;;;;5033181;28;20036;-80
2022/10/04 13:38:02;;;;;;;2.28;1.10;;;;;;;;;;5020328;28;20120;-81
2022/10/04 13:40:37;;;;;;;3.40;1.17;;;;;;;;;;5014637;28;20060;-79
2022/10/04 13:43:22;;;;;;;3.92;1.20;;;;;;;;;;5014479;28;20034;-78
2022/10/04 13:45:55;;;;;;;4.20;1.38;;;;;;;;;;5025787;28;20083;-80
2022/10/04 13:48:22;;;;;;;5.00;1.27;;;;;;;;;;5035933;28;20029;-78
2022/10/04 13:50:48;;;;;;;3.58;1.17;;;;;;;;;;5035313;28;20383;-77
2022/10/04 13:56:36;;;;;;;2.50;1.23;;;;;;;;;;5054071;28;20083;-80
2022/10/04 13:59:21;;;;;;;6.25;1.40;;;;;;;;;;5035585;28;20390;-80
2022/10/04 14:02:09;;;;;;;6.68;1.30;;;;;;;;;;5053820;28;20024;-80
2022/10/04 14:04:55;;;;;;;2.63;1.25;;;;;;;;;;5033724;28;20033;-81
2022/10/04 14:07:21;;;;;;;4.18;1.38;;;;;;;;;;5033704;28;20030;-80
2022/10/04 14:10:06;;;;;;;3.22;1.50;;;;;;;;;;5015982;28;20021;-80
2022/10/04 14:12:51;;;;;;;4.72;1.48;;;;;;;;;;5033511;28;20037;-82
2022/10/04 14:15:43;;;;;;;3.72;1.58;;;;;;;;;;5033707;28;20071;-78
2022/10/04 14:18:36;;;;;;;4.60;1.70;;;;;;;;;;5010366;28;20034;-80
2022/10/04 14:21:11;;;;;;;4.18;1.35;;;;;;;;;;5015779;28;20040;-80
2022/10/04 14:23:37;;;;;;;3.50;1.50;;;;;;;;;;5015774;28;20022;-77
2022/10/04 14:26:06;;;;;;;4.18;1.67;;;;;;;;;;5015557;28;20041;-77
2022/10/04 14:28:44;;;;;;;4.22;1.70;;;;;;;;;;5015524;28;20072;-78
2022/10/04 14:31:32;;;;;;;6.53;1.63;;;;;;;;;;5033388;28;20026;-77
2022/10/04 14:33:58;;;;;;;2.65;1.30;;;;;;;;;;5033373;28;20021;-77
2022/10/04 14:36:27;;;;;;;3.13;1.30;;;;;;;;;;5018827;28;20028;-78
2022/10/04 14:39:09;;;;;;;5.47;1.55;;;;;;;;;;5035807;28;20024;-85
2022/10/04 14:41:39;;;;;;;3.25;1.63;;;;;;;;;;5035444;28;20029;-77
2022/10/04 14:44:11;;;;;;;7.50;1.80;;;;;;;;;;5053292;28;20076;-77
2022/10/04 14:46:42;;;;;;;4.82;1.65;;;;;;;;;;5052997;28;20536;-76
2022/10/04 14:49:11;;;;;;;4.07;1.88;;;;;;;;;;5053258;28;20378;-82
2022/10/04 14:51:37;;;;;;;5.07;1.80;;;;;;;;;;5034928;28;20029;-80
2022/10/04 14:54:07;;;;;;;7.65;1.80;;;;;;;;;;5034496;28;20125;-78
2022/10/04 14:56:36;;;;;;;4.05;1.70;;;;;;;;;;5052760;28;20067;-77
2022/10/04 14:59:15;;;;;;;5.78;1.80;;;;;;;;;;5034925;28;20469;-79
2022/10/04 15:02:06;;;;;;;5.53;2.03;;;;;;;;;;5035502;28;20032;-78
2022/10/04 15:04:50;;;;;;;3.78;1.92;;;;;;;;;;5039190;28;20086;-78
2022/10/04 15:07:30;;;;;;;5.00;1.90;;;;;;;;;;5038957;28;20037;-79
2022/10/04 15:09:59;;;;;;;4.68;1.95;;;;;;;;;;5039071;28;20029;-82
2022/10/04 15:12:31;;;;;;;4.28;2.20;;;;;;;;;;5056694;28;20021;-78
2022/10/04 15:14:57;;;;;;;3.28;1.85;;;;;;;;;;5039069;28;20028;-78
2022/10/04 15:17:29;;;;;;;4.45;2.30;;;;;;;;;;5038957;28;20067;-80
2022/10/04 15:20:05;;;;;;;4.88;1.90;;;;;;;;;;5038894;28;20033;-80
2022/10/04 15:22:40;;;;;;;9.57;2.28;;;;;;;;;;5033518;28;20030;-78
2022/10/04 15:25:25;;;;;;;8.20;2.45;;;;;;;;;;5018926;28;20049;-77
2022/10/04 15:27:53;;;;;;;6.20;2.50;;;;;;;;;;5018992;28;20394;-79
2022/10/04 15:30:22;;;;;;;8.38;2.08;;;;;;;;;;5019126;28;20040;-75
2022/10/04 15:33:08;;;;;;;2.90;2.17;;;;;;;;;;5019583;28;20387;-79
2022/10/04 15:35:34;;;;;;;5.10;2.22;;;;;;;;;;5019896;28;20132;-78
2022/10/04 15:38:03;;;;;;;5.25;2.05;;;;;;;;;;5036647;28;20021;-77
2022/10/04 15:40:33;;;;;;;6.78;2.63;;;;;;;;;;5023322;28;20082;-76
2022/10/04 15:43:02;;;;;;;4.95;1.98;;;;;;;;;;5032362;28;20036;-79
2022/10/04 15:45:48;;;;;;;5.03;2.05;;;;;;;;;;5036103;28;20025;-77
2022/10/04 15:48:20;;;;;;;5.85;3.20;;;;;;;;;;5051734;28;20033;-78